Time;durP1;ratioP1;P1;durP2;ratioP2;P2;SDS_P1;SDS_P2;PMS_P1;PMS_P2;Temp;Humidity;BMP_temperature;BMP_pressure;BME280_temperature;BME280_humidity;BME280_pressure;Samples;Min_cycle;Max_cycle;Signal;HPM_P1;HPM_P2
2021/01/09 00:00:09;;;;;;;;;;;;;;;;;;2071472;28;7144;-64
2021/01/09 00:01:10;;;;;;;;;;;;;;;;;;2078901;28;7009;-65
2021/01/09 00:02:14;;;;;;;;;;;;;;;;;;2079368;28;7092;-65
2021/01/09 00:03:17;;;;;;;;;;;;;;;;;;2079390;28;7079;-65
2021/01/09 00:04:18;;;;;;;;;;;;;;;;;;2078959;28;7109;-66
2021/01/09 00:05:20;;;;;;;;;;;;;;;;;;2079064;28;7009;-63
2021/01/09 00:06:22;;;;;;;;;;;;;;;;;;2078686;28;7010;-64
2021/01/09 00:07:24;;;;;;;;;;;;;;;;;;2078977;28;7044;-63
2021/01/09 00:08:26;;;;;;;;;;;;;;;;;;2079229;28;7049;-64
2021/01/09 00:09:28;;;;;;;;;;;;;;;;;;2070516;28;8106;-63
2021/01/09 00:10:30;;;;;;;;;;;;;;;;;;2069516;28;7042;-63
2021/01/09 00:11:32;;;;;;;;;;;;;;;;;;2071667;28;7037;-63
2021/01/09 00:12:38;;;;;;;;;;;;;;;;;;2070761;28;7112;-65
2021/01/09 00:13:39;;;;;;;;;;;;;;;;;;2069445;28;7041;-65
2021/01/09 00:14:41;;;;;;;;;;;;;;;;;;2070415;28;7152;-64
2021/01/09 00:15:44;;;;;;;;;;;;;;;;;;2070747;28;7117;-65
2021/01/09 00:16:46;;;;;;;;;;;;;;;;;;2070942;28;8999;-63
2021/01/09 00:17:48;;;;;;;;;;;;;;;;;;2071391;28;7021;-64
2021/01/09 00:18:51;;;;;;;;;;;;;;;;;;2070698;28;7206;-66
2021/01/09 00:19:53;;;;;;;;;;;;;;;;;;2070736;28;7009;-63
2021/01/09 00:20:55;;;;;;;;;;;;;;;;;;2070664;28;7010;-65
2021/01/09 00:21:58;;;;;;;;;;;;;;;;;;2079117;28;7009;-66
2021/01/09 00:22:59;;;;;;;;;;;;;;;;;;2079410;28;8066;-66
2021/01/09 00:24:03;;;;;;;;;;;;;;;;;;2078790;28;7084;-66
2021/01/09 00:25:06;;;;;;;;;;;;;;;;;;2079029;28;7097;-64
2021/01/09 00:26:08;;;;;;;;;;;;;;;;;;2069519;28;7117;-63
2021/01/09 00:27:11;;;;;;;;;;;;;;;;;;2075663;28;7089;-63
2021/01/09 00:28:14;;;;;;;;;;;;;;;;;;2079505;28;7116;-65
2021/01/09 00:29:16;;;;;;;;;;;;;;;;;;2078644;28;8073;-63
2021/01/09 00:30:18;;;;;;;;;;;;;;;;;;2079344;28;7414;-64
2021/01/09 00:31:20;;;;;;;;;;;;;;;;;;2078671;28;7088;-64
2021/01/09 00:32:22;;;;;;;;;;;;;;;;;;2080035;28;7009;-65
2021/01/09 00:33:24;;;;;;;;;;;;;;;;;;2078514;28;8051;-63
2021/01/09 00:34:26;;;;;;;;;;;;;;;;;;2078449;28;7013;-66
2021/01/09 00:35:28;;;;;;;;;;;;;;;;;;2078250;28;7088;-65
2021/01/09 00:36:30;;;;;;;;;;;;;;;;;;2078498;28;7009;-63
2021/01/09 00:37:32;;;;;;;;;;;;;;;;;;2078517;28;7092;-65
2021/01/09 00:38:34;;;;;;;;;;;;;;;;;;2070697;28;7041;-63
2021/01/09 00:39:36;;;;;;;;;;;;;;;;;;2069781;28;7029;-64
2021/01/09 00:40:38;;;;;;;;;;;;;;;;;;2070528;28;7092;-66
2021/01/09 00:41:40;;;;;;;;;;;;;;;;;;2070149;28;7089;-62
2021/01/09 00:42:44;;;;;;;;;;;;;;;;;;2070522;28;7009;-66
2021/01/09 00:43:46;;;;;;;;;;;;;;;;;;2070462;28;7021;-64
2021/01/09 00:44:48;;;;;;;;;;;;;;;;;;2070762;28;7137;-63
2021/01/09 00:45:50;;;;;;;;;;;;;;;;;;2070837;28;7092;-63
2021/01/09 00:46:56;;;;;;;;;;;;;;;;;;2070999;28;7092;-64
2021/01/09 00:47:58;;;;;;;;;;;;;;;;;;2070121;28;7254;-66
2021/01/09 00:49:00;;;;;;;;;;;;;;;;;;2070068;28;7081;-64
2021/01/09 00:50:06;;;;;;;;;;;;;;;;;;2070873;28;7005;-63
2021/01/09 00:51:11;;;;;;;;;;;;;;;;;;2070448;28;7009;-63
2021/01/09 00:52:13;;;;;;;;;;;;;;;;;;2070461;28;8050;-65
2021/01/09 00:53:15;;;;;;;;;;;;;;;;;;2069360;28;8103;-66
2021/01/09 00:54:17;;;;;;;;;;;;;;;;;;2069363;28;7013;-62
2021/01/09 00:55:20;;;;;;;;;;;;;;;;;;2070694;28;7097;-64
2021/01/09 00:56:22;;;;;;;;;;;;;;;;;;2070481;28;7013;-63
2021/01/09 00:57:23;;;;;;;;;;;;;;;;;;2071080;28;7041;-66
2021/01/09 00:58:26;;;;;;;;;;;;;;;;;;2078690;28;7108;-66
2021/01/09 00:59:28;;;;;;;;;;;;;;;;;;2078728;28;7360;-62
2021/01/09 01:00:30;;;;;;;;;;;;;;;;;;2078101;28;7093;-65
2021/01/09 01:01:33;;;;;;;;;;;;;;;;;;2078431;28;7029;-65
2021/01/09 01:02:36;;;;;;;;;;;;;;;;;;2077489;28;7009;-63
2021/01/09 01:03:38;;;;;;;;;;;;;;;;;;2078834;28;7353;-65
2021/01/09 01:04:40;;;;;;;;;;;;;;;;;;2078490;28;7029;-65
2021/01/09 01:05:44;;;;;;;;;;;;;;;;;;2078351;28;7029;-63
2021/01/09 01:06:47;;;;;;;;;;;;;;;;;;2078143;28;8087;-65
2021/01/09 01:07:49;;;;;;;;;;;;;;;;;;2078209;28;7236;-63
2021/01/09 01:08:51;;;;;;;;;;;;;;;;;;2078774;28;7096;-66
2021/01/09 01:09:53;;;;;;;;;;;;;;;;;;2078835;28;8009;-65
2021/01/09 01:10:55;;;;;;;;;;;;;;;;;;2070123;28;7081;-64
2021/01/09 01:11:57;;;;;;;;;;;;;;;;;;2070710;28;7038;-63
2021/01/09 01:12:59;;;;;;;;;;;;;;;;;;2068844;28;7084;-64
2021/01/09 01:14:00;;;;;;;;;;;;;;;;;;2070545;28;7009;-65
2021/01/09 01:15:04;;;;;;;;;;;;;;;;;;2070592;28;7088;-62
2021/01/09 01:16:06;;;;;;;;;;;;;;;;;;2070618;28;7312;-64
2021/01/09 01:17:08;;;;;;;;;;;;;;;;;;2070166;28;7131;-64
2021/01/09 01:18:10;;;;;;;;;;;;;;;;;;2070717;28;7092;-65
2021/01/09 01:19:13;;;;;;;;;;;;;;;;;;2070681;28;8046;-65
2021/01/09 01:20:15;;;;;;;;;;;;;;;;;;2070597;28;7009;-65
2021/01/09 01:21:17;;;;;;;;;;;;;;;;;;2073988;28;7046;-66
2021/01/09 01:22:19;;;;;;;;;;;;;;;;;;2069637;28;7088;-65
2021/01/09 01:23:21;;;;;;;;;;;;;;;;;;2078358;28;7980;-66
2021/01/09 01:24:23;;;;;;;;;;;;;;;;;;2078130;28;7116;-65
2021/01/09 01:25:25;;;;;;;;;;;;;;;;;;2078027;28;7112;-64
2021/01/09 01:26:27;;;;;;;;;;;;;;;;;;2078424;28;7006;-64
2021/01/09 01:27:29;;;;;;;;;;;;;;;;;;2078004;28;7133;-65
2021/01/09 01:28:31;;;;;;;;;;;;;;;;;;2078517;28;7009;-64
2021/01/09 01:29:33;;;;;;;;;;;;;;;;;;2078272;28;7096;-65
2021/01/09 01:30:35;;;;;;;;;;;;;;;;;;2078533;28;8056;-65
2021/01/09 01:31:37;;;;;;;;;;;;;;;;;;2069654;28;7089;-63
2021/01/09 01:32:39;;;;;;;;;;;;;;;;;;2070137;28;7021;-64
2021/01/09 01:33:41;;;;;;;;;;;;;;;;;;2070488;28;8051;-65
2021/01/09 01:34:43;;;;;;;;;;;;;;;;;;2069351;28;7009;-66
2021/01/09 01:35:47;;;;;;;;;;;;;;;;;;2072480;28;7013;-66
2021/01/09 01:36:49;;;;;;;;;;;;;;;;;;2078485;28;7100;-65
2021/01/09 01:37:52;;;;;;;;;;;;;;;;;;2090067;28;7013;-65
2021/01/09 01:38:54;;;;;;;;;;;;;;;;;;2085793;28;8063;-63
2021/01/09 01:39:56;;;;;;;;;;;;;;;;;;2070344;28;7079;-65
2021/01/09 01:41:02;;;;;;;;;;;;;;;;;;2070076;28;7117;-63
2021/01/09 01:42:04;;;;;;;;;;;;;;;;;;2076542;28;7589;-64
2021/01/09 01:43:12;;;;;;;;;;;;;;;;;;2078424;28;7113;-65
2021/01/09 01:44:14;;;;;;;;;;;;;;;;;;2078468;28;7009;-63
2021/01/09 01:45:16;;;;;;;;;;;;;;;;;;2078666;28;7017;-63
2021/01/09 01:46:18;;;;;;;;;;;;;;;;;;2069353;28;7009;-64
2021/01/09 01:47:21;;;;;;;;;;;;;;;;;;2069454;28;7034;-62
2021/01/09 01:48:23;;;;;;;;;;;;;;;;;;2068865;28;7109;-64
2021/01/09 01:49:25;;;;;;;;;;;;;;;;;;2070531;28;8066;-65
2021/01/09 01:50:27;;;;;;;;;;;;;;;;;;2070618;28;7120;-64
2021/01/09 01:51:29;;;;;;;;;;;;;;;;;;2078075;28;8112;-65
2021/01/09 01:52:31;;;;;;;;;;;;;;;;;;2085357;28;7013;-66
2021/01/09 01:53:33;;;;;;;;;;;;;;;;;;2078429;28;8034;-66
2021/01/09 01:54:35;;;;;;;;;;;;;;;;;;2078105;28;7141;-64
2021/01/09 01:55:37;;;;;;;;;;;;;;;;;;2078408;28;7324;-66
2021/01/09 01:56:40;;;;;;;;;;;;;;;;;;2078565;28;7013;-63
2021/01/09 01:57:42;;;;;;;;;;;;;;;;;;2078286;28;7140;-64
2021/01/09 01:58:43;;;;;;;;;;;;;;;;;;2078697;28;7025;-62
2021/01/09 01:59:45;;;;;;;;;;;;;;;;;;2078446;28;7032;-64
2021/01/09 02:00:49;;;;;;;;;;;;;;;;;;2078250;28;7264;-64
2021/01/09 02:01:52;;;;;;;;;;;;;;;;;;2078400;28;7088;-66
2021/01/09 02:02:55;;;;;;;;;;;;;;;;;;2071532;28;7085;-63
2021/01/09 02:03:57;;;;;;;;;;;;;;;;;;2075807;28;7213;-61
2021/01/09 02:05:02;;;;;;;;;;;;;;;;;;2078413;28;7105;-63
2021/01/09 02:06:16;;;;;;;;;;;;;;;;;;2078312;28;7129;-65
2021/01/09 02:07:21;;;;;;;;;;;;;;;;;;2069738;28;7013;-64
2021/01/09 02:08:28;;;;;;;;;;;;;;;;;;2071083;28;8066;-62
2021/01/09 02:09:33;;;;;;;;;;;;;;;;;;2070628;28;7014;-65
2021/01/09 02:10:35;;;;;;;;;;;;;;;;;;2070758;28;7040;-66
2021/01/09 02:11:45;;;;;;;;;;;;;;;;;;2069438;28;7042;-66
2021/01/09 02:12:54;;;;;;;;;;;;;;;;;;2069455;28;8869;-63
2021/01/09 02:13:59;;;;;;;;;;;;;;;;;;2075913;28;7085;-66
2021/01/09 02:15:03;;;;;;;;;;;;;;;;;;2071807;28;7045;-65
2021/01/09 02:16:05;;;;;;;;;;;;;;;;;;2071223;28;7188;-65
2021/01/09 02:17:08;;;;;;;;;;;;;;;;;;2071598;28;7042;-65
2021/01/09 02:18:13;;;;;;;;;;;;;;;;;;2070760;28;7029;-63
2021/01/09 02:19:20;;;;;;;;;;;;;;;;;;2071936;28;7021;-63
2021/01/09 02:20:23;;;;;;;;;;;;;;;;;;2071456;28;7328;-64
2021/01/09 02:21:37;;;;;;;;;;;;;;;;;;2076022;28;8022;-64
2021/01/09 02:22:41;;;;;;;;;;;;;;;;;;2096019;28;7025;-65
2021/01/09 02:23:43;;;;;;;;;;;;;;;;;;2093964;28;7009;-65
2021/01/09 02:24:46;;;;;;;;;;;;;;;;;;2079559;28;7009;-66
2021/01/09 02:25:48;;;;;;;;;;;;;;;;;;2079211;28;7092;-66
2021/01/09 02:26:50;;;;;;;;;;;;;;;;;;2079598;28;7046;-66
2021/01/09 02:27:52;;;;;;;;;;;;;;;;;;2079149;28;7109;-66
2021/01/09 02:28:54;;;;;;;;;;;;;;;;;;2079463;28;7009;-66
2021/01/09 02:30:08;;;;;;;;;;;;;;;;;;2079545;28;7009;-63
2021/01/09 02:31:11;;;;;;;;;;;;;;;;;;2070576;28;7096;-65
2021/01/09 02:32:18;;;;;;;;;;;;;;;;;;2071621;28;7050;-66
2021/01/09 02:33:22;;;;;;;;;;;;;;;;;;2071367;28;7009;-63
2021/01/09 02:34:28;;;;;;;;;;;;;;;;;;2070867;28;7009;-63
2021/01/09 02:35:32;;;;;;;;;;;;;;;;;;2070573;28;7029;-63
2021/01/09 02:36:36;;;;;;;;;;;;;;;;;;2071495;28;7088;-64
2021/01/09 02:37:39;;;;;;;;;;;;;;;;;;2071463;28;7088;-66
2021/01/09 02:38:43;;;;;;;;;;;;;;;;;;2071085;28;7009;-66
2021/01/09 02:39:45;;;;;;;;;;;;;;;;;;2071468;28;7249;-63
2021/01/09 02:40:47;;;;;;;;;;;;;;;;;;2071933;28;7009;-63
2021/01/09 02:41:49;;;;;;;;;;;;;;;;;;2071550;28;7018;-63
2021/01/09 02:42:51;;;;;;;;;;;;;;;;;;2072153;28;7375;-64
2021/01/09 02:44:03;;;;;;;;;;;;;;;;;;2071784;28;7028;-63
2021/01/09 02:45:06;;;;;;;;;;;;;;;;;;2070228;28;7364;-66
2021/01/09 02:46:08;;;;;;;;;;;;;;;;;;2071062;28;7117;-64
2021/01/09 02:47:10;;;;;;;;;;;;;;;;;;2071338;28;7088;-62
2021/01/09 02:48:12;;;;;;;;;;;;;;;;;;2071049;28;7117;-65
2021/01/09 02:49:14;;;;;;;;;;;;;;;;;;2071871;28;7143;-65
2021/01/09 02:50:16;;;;;;;;;;;;;;;;;;2079120;28;7331;-64
2021/01/09 02:51:18;;;;;;;;;;;;;;;;;;2079275;28;7017;-63
2021/01/09 02:52:20;;;;;;;;;;;;;;;;;;2079299;28;7092;-63
2021/01/09 02:53:22;;;;;;;;;;;;;;;;;;2079321;28;7109;-64
2021/01/09 02:54:23;;;;;;;;;;;;;;;;;;2079485;28;7042;-63
2021/01/09 02:55:25;;;;;;;;;;;;;;;;;;2079642;28;7042;-64
2021/01/09 02:56:27;;;;;;;;;;;;;;;;;;2079553;28;7112;-63
2021/01/09 02:57:29;;;;;;;;;;;;;;;;;;2076617;28;7017;-64
2021/01/09 02:58:31;;;;;;;;;;;;;;;;;;2070985;28;8048;-64
2021/01/09 02:59:33;;;;;;;;;;;;;;;;;;2070941;28;8054;-65
2021/01/09 03:00:35;;;;;;;;;;;;;;;;;;2071281;28;8023;-66
2021/01/09 03:01:37;;;;;;;;;;;;;;;;;;2071469;28;7042;-64
2021/01/09 03:02:39;;;;;;;;;;;;;;;;;;2071152;28;7021;-63
2021/01/09 03:03:42;;;;;;;;;;;;;;;;;;2071128;28;7081;-64
2021/01/09 03:04:44;;;;;;;;;;;;;;;;;;2071342;28;7009;-64
2021/01/09 03:05:45;;;;;;;;;;;;;;;;;;2071402;28;7127;-65
2021/01/09 03:06:47;;;;;;;;;;;;;;;;;;2070581;28;7157;-66
2021/01/09 03:07:49;;;;;;;;;;;;;;;;;;2069727;28;7102;-65
2021/01/09 03:08:52;;;;;;;;;;;;;;;;;;2075323;28;7096;-63
2021/01/09 03:09:54;;;;;;;;;;;;;;;;;;2079008;28;7014;-65
2021/01/09 03:10:56;;;;;;;;;;;;;;;;;;2079860;28;7009;-65
2021/01/09 03:11:58;;;;;;;;;;;;;;;;;;2071944;28;8117;-65
2021/01/09 03:13:00;;;;;;;;;;;;;;;;;;2070928;28;7109;-66
2021/01/09 03:14:02;;;;;;;;;;;;;;;;;;2070727;28;7081;-65
2021/01/09 03:15:04;;;;;;;;;;;;;;;;;;2071289;28;7108;-64
2021/01/09 03:16:06;;;;;;;;;;;;;;;;;;2071122;28;8065;-63
2021/01/09 03:17:08;;;;;;;;;;;;;;;;;;2071193;28;7120;-64
2021/01/09 03:18:10;;;;;;;;;;;;;;;;;;2070778;28;7009;-66
2021/01/09 03:19:12;;;;;;;;;;;;;;;;;;2071126;28;7005;-66
2021/01/09 03:20:14;;;;;;;;;;;;;;;;;;2071332;28;7021;-65
2021/01/09 03:21:16;;;;;;;;;;;;;;;;;;2073174;28;7014;-63
2021/01/09 03:22:18;;;;;;;;;;;;;;;;;;2079216;28;7014;-67
2021/01/09 03:23:20;;;;;;;;;;;;;;;;;;2078829;28;7010;-65
2021/01/09 03:24:22;;;;;;;;;;;;;;;;;;2079133;28;7103;-65
2021/01/09 03:25:24;;;;;;;;;;;;;;;;;;2078304;28;7457;-65
2021/01/09 03:26:26;;;;;;;;;;;;;;;;;;2077940;28;7105;-64
2021/01/09 03:27:27;;;;;;;;;;;;;;;;;;2071166;28;7085;-65
2021/01/09 03:28:30;;;;;;;;;;;;;;;;;;2070585;28;7005;-64
2021/01/09 03:29:32;;;;;;;;;;;;;;;;;;2070866;28;7085;-64
2021/01/09 03:30:34;;;;;;;;;;;;;;;;;;2070757;28;7014;-64
2021/01/09 03:31:37;;;;;;;;;;;;;;;;;;2070912;28;7006;-65
2021/01/09 03:32:39;;;;;;;;;;;;;;;;;;2070908;28;7096;-66
2021/01/09 03:33:41;;;;;;;;;;;;;;;;;;2071017;28;7092;-64
2021/01/09 03:34:43;;;;;;;;;;;;;;;;;;2070909;28;7092;-65
2021/01/09 03:35:45;;;;;;;;;;;;;;;;;;2071183;28;7320;-66
2021/01/09 03:36:47;;;;;;;;;;;;;;;;;;2071216;28;7006;-66
2021/01/09 03:37:49;;;;;;;;;;;;;;;;;;2071472;28;7108;-64
2021/01/09 03:38:53;;;;;;;;;;;;;;;;;;2072374;28;7013;-64
2021/01/09 03:39:54;;;;;;;;;;;;;;;;;;2071785;28;7025;-66
2021/01/09 03:40:56;;;;;;;;;;;;;;;;;;2069071;28;7009;-63
2021/01/09 03:41:58;;;;;;;;;;;;;;;;;;2071457;28;7092;-63
2021/01/09 03:43:00;;;;;;;;;;;;;;;;;;2071399;28;7045;-63
2021/01/09 03:44:03;;;;;;;;;;;;;;;;;;2079042;28;7100;-62
2021/01/09 03:45:05;;;;;;;;;;;;;;;;;;2078725;28;7092;-63
2021/01/09 03:46:07;;;;;;;;;;;;;;;;;;2079392;28;8105;-64
2021/01/09 03:47:09;;;;;;;;;;;;;;;;;;2078669;28;7010;-66
2021/01/09 03:48:11;;;;;;;;;;;;;;;;;;2079152;28;7078;-65
2021/01/09 03:49:14;;;;;;;;;;;;;;;;;;2078655;28;7013;-63
2021/01/09 03:50:16;;;;;;;;;;;;;;;;;;2078905;28;7120;-65
2021/01/09 03:51:20;;;;;;;;;;;;;;;;;;2079557;28;7117;-63
2021/01/09 03:52:22;;;;;;;;;;;;;;;;;;2078875;28;8015;-63
2021/01/09 03:53:24;;;;;;;;;;;;;;;;;;2079465;28;7117;-65
2021/01/09 03:54:26;;;;;;;;;;;;;;;;;;2079598;28;6998;-63
2021/01/09 03:55:27;;;;;;;;;;;;;;;;;;2078427;28;8008;-66
2021/01/09 03:56:29;;;;;;;;;;;;;;;;;;2078720;28;7458;-63
2021/01/09 03:57:31;;;;;;;;;;;;;;;;;;2078654;28;7126;-66
2021/01/09 03:58:33;;;;;;;;;;;;;;;;;;2078902;28;7013;-64
2021/01/09 03:59:35;;;;;;;;;;;;;;;;;;2078645;28;7088;-62
2021/01/09 04:00:37;;;;;;;;;;;;;;;;;;2078913;28;7078;-66
2021/01/09 04:01:39;;;;;;;;;;;;;;;;;;2078777;28;7129;-64
2021/01/09 04:02:41;;;;;;;;;;;;;;;;;;2078823;28;7131;-64
2021/01/09 04:03:43;;;;;;;;;;;;;;;;;;2078337;28;7192;-65
2021/01/09 04:04:45;;;;;;;;;;;;;;;;;;2079293;28;7168;-63
2021/01/09 04:05:46;;;;;;;;;;;;;;;;;;2069845;28;7084;-64
2021/01/09 04:06:48;;;;;;;;;;;;;;;;;;2069917;28;7013;-65
2021/01/09 04:07:53;;;;;;;;;;;;;;;;;;2070930;28;7823;-66
2021/01/09 04:08:55;;;;;;;;;;;;;;;;;;2070364;28;7049;-65
2021/01/09 04:09:57;;;;;;;;;;;;;;;;;;2068565;28;7097;-65
2021/01/09 04:10:59;;;;;;;;;;;;;;;;;;2070250;28;7088;-62
2021/01/09 04:12:00;;;;;;;;;;;;;;;;;;2070162;28;7088;-63
2021/01/09 04:13:02;;;;;;;;;;;;;;;;;;2070548;28;7009;-64
2021/01/09 04:14:04;;;;;;;;;;;;;;;;;;2070526;28;7096;-66
2021/01/09 04:15:07;;;;;;;;;;;;;;;;;;2070520;28;7112;-64
2021/01/09 04:16:09;;;;;;;;;;;;;;;;;;2069580;28;7088;-66
2021/01/09 04:17:11;;;;;;;;;;;;;;;;;;2070563;28;7096;-63
2021/01/09 04:18:13;;;;;;;;;;;;;;;;;;2070437;28;7017;-66
2021/01/09 04:19:15;;;;;;;;;;;;;;;;;;2070687;28;7092;-63
2021/01/09 04:20:17;;;;;;;;;;;;;;;;;;2070753;28;7009;-65
2021/01/09 04:21:19;;;;;;;;;;;;;;;;;;2073810;28;7025;-64
2021/01/09 04:22:20;;;;;;;;;;;;;;;;;;2078932;28;7300;-62
2021/01/09 04:23:22;;;;;;;;;;;;;;;;;;2072386;28;7005;-65
2021/01/09 04:24:24;;;;;;;;;;;;;;;;;;2070549;28;7009;-66
2021/01/09 04:25:26;;;;;;;;;;;;;;;;;;2073977;28;7009;-63
2021/01/09 04:26:32;;;;;;;;;;;;;;;;;;2078827;28;7977;-65
2021/01/09 04:27:34;;;;;;;;;;;;;;;;;;2079088;28;7275;-64
2021/01/09 04:28:36;;;;;;;;;;;;;;;;;;2069436;28;7168;-65
2021/01/09 04:29:38;;;;;;;;;;;;;;;;;;2070435;28;7005;-64
2021/01/09 04:30:40;;;;;;;;;;;;;;;;;;2070600;28;7116;-66
2021/01/09 04:31:42;;;;;;;;;;;;;;;;;;2070515;28;7009;-63
2021/01/09 04:32:44;;;;;;;;;;;;;;;;;;2070354;28;7045;-66
2021/01/09 04:33:46;;;;;;;;;;;;;;;;;;2070199;28;7041;-65
2021/01/09 04:34:49;;;;;;;;;;;;;;;;;;2070166;28;7092;-66
2021/01/09 04:35:51;;;;;;;;;;;;;;;;;;2070871;28;7092;-66
2021/01/09 04:36:53;;;;;;;;;;;;;;;;;;2070528;28;7301;-65
2021/01/09 04:37:54;;;;;;;;;;;;;;;;;;2070916;28;7009;-63
2021/01/09 04:38:56;;;;;;;;;;;;;;;;;;2070581;28;7126;-64
2021/01/09 04:39:59;;;;;;;;;;;;;;;;;;2071018;28;8038;-64
2021/01/09 04:41:02;;;;;;;;;;;;;;;;;;2069821;28;8035;-63
2021/01/09 04:42:10;;;;;;;;;;;;;;;;;;2070667;28;7021;-65
2021/01/09 04:43:12;;;;;;;;;;;;;;;;;;2070342;28;7092;-63
2021/01/09 04:44:14;;;;;;;;;;;;;;;;;;2070449;28;7041;-65
2021/01/09 04:45:16;;;;;;;;;;;;;;;;;;2070172;28;7025;-63
2021/01/09 04:46:20;;;;;;;;;;;;;;;;;;2070455;28;7009;-64
2021/01/09 04:47:24;;;;;;;;;;;;;;;;;;2070247;28;7089;-64
2021/01/09 04:48:26;;;;;;;;;;;;;;;;;;2070598;28;7009;-62
2021/01/09 04:49:29;;;;;;;;;;;;;;;;;;2070314;28;7228;-65
2021/01/09 04:50:37;;;;;;;;;;;;;;;;;;2069398;28;7489;-65
2021/01/09 04:51:41;;;;;;;;;;;;;;;;;;2070361;28;7021;-66
2021/01/09 04:52:43;;;;;;;;;;;;;;;;;;2071018;28;7037;-65
2021/01/09 04:53:47;;;;;;;;;;;;;;;;;;2069580;28;7037;-65
2021/01/09 04:54:50;;;;;;;;;;;;;;;;;;2071305;28;7045;-64
2021/01/09 04:55:53;;;;;;;;;;;;;;;;;;2071008;28;7197;-66
2021/01/09 04:56:55;;;;;;;;;;;;;;;;;;2070686;28;7178;-64
2021/01/09 04:58:00;;;;;;;;;;;;;;;;;;2070626;28;7046;-64
2021/01/09 04:59:02;;;;;;;;;;;;;;;;;;2070361;28;7048;-65
2021/01/09 05:00:06;;;;;;;;;;;;;;;;;;2069985;28;7088;-66
2021/01/09 05:01:08;;;;;;;;;;;;;;;;;;2070341;28;7040;-64
2021/01/09 05:02:13;;;;;;;;;;;;;;;;;;2070361;28;8067;-66
2021/01/09 05:03:15;;;;;;;;;;;;;;;;;;2070414;28;7013;-63
2021/01/09 05:04:23;;;;;;;;;;;;;;;;;;2070105;28;7046;-66
2021/01/09 05:05:24;;;;;;;;;;;;;;;;;;2070292;28;7009;-65
2021/01/09 05:06:26;;;;;;;;;;;;;;;;;;2070032;28;7093;-66
2021/01/09 05:07:28;;;;;;;;;;;;;;;;;;2070294;28;7384;-65
2021/01/09 05:08:30;;;;;;;;;;;;;;;;;;2069889;28;7105;-66
2021/01/09 05:09:32;;;;;;;;;;;;;;;;;;2069876;28;7010;-65
2021/01/09 05:10:35;;;;;;;;;;;;;;;;;;2070088;28;7088;-63
2021/01/09 05:11:39;;;;;;;;;;;;;;;;;;2070334;28;7009;-63
2021/01/09 05:12:41;;;;;;;;;;;;;;;;;;2070454;28;7113;-63
2021/01/09 05:13:43;;;;;;;;;;;;;;;;;;2070632;28;7305;-65
2021/01/09 05:14:46;;;;;;;;;;;;;;;;;;2070139;28;7009;-64
2021/01/09 05:15:49;;;;;;;;;;;;;;;;;;2070565;28;8022;-64
2021/01/09 05:16:51;;;;;;;;;;;;;;;;;;2070098;28;8070;-64
2021/01/09 05:17:52;;;;;;;;;;;;;;;;;;2070396;28;7009;-64
2021/01/09 05:18:54;;;;;;;;;;;;;;;;;;2070122;28;7009;-67
2021/01/09 05:20:04;;;;;;;;;;;;;;;;;;2070041;28;7142;-65
2021/01/09 05:21:06;;;;;;;;;;;;;;;;;;2071449;28;8043;-66
2021/01/09 05:22:08;;;;;;;;;;;;;;;;;;2078489;28;7009;-67
2021/01/09 05:23:10;;;;;;;;;;;;;;;;;;2077603;28;7339;-66
2021/01/09 05:24:13;;;;;;;;;;;;;;;;;;2078021;28;7108;-63
2021/01/09 05:25:15;;;;;;;;;;;;;;;;;;2078271;28;7009;-63
2021/01/09 05:26:18;;;;;;;;;;;;;;;;;;2078330;28;7009;-65
2021/01/09 05:27:20;;;;;;;;;;;;;;;;;;2077887;28;7014;-65
2021/01/09 05:28:25;;;;;;;;;;;;;;;;;;2078716;28;7313;-64
2021/01/09 05:29:27;;;;;;;;;;;;;;;;;;2093800;28;7168;-64
2021/01/09 05:30:28;;;;;;;;;;;;;;;;;;2093624;28;8050;-64
2021/01/09 05:31:35;;;;;;;;;;;;;;;;;;2078255;28;7965;-65
2021/01/09 05:32:37;;;;;;;;;;;;;;;;;;2078339;28;7013;-64
2021/01/09 05:33:40;;;;;;;;;;;;;;;;;;2077261;28;7045;-66
2021/01/09 05:34:54;;;;;;;;;;;;;;;;;;2078155;28;7133;-66
2021/01/09 05:35:59;;;;;;;;;;;;;;;;;;2077672;28;7980;-66
2021/01/09 05:37:12;;;;;;;;;;;;;;;;;;2078420;28;7017;-65
2021/01/09 05:38:14;;;;;;;;;;;;;;;;;;2086244;28;7093;-66
2021/01/09 05:39:16;;;;;;;;;;;;;;;;;;2085822;28;7033;-65
2021/01/09 05:40:18;;;;;;;;;;;;;;;;;;2077915;28;7006;-66
2021/01/09 05:41:22;;;;;;;;;;;;;;;;;;2070164;28;7054;-65
2021/01/09 05:42:25;;;;;;;;;;;;;;;;;;2070478;28;7009;-65
2021/01/09 05:43:27;;;;;;;;;;;;;;;;;;2070294;28;7017;-65
2021/01/09 05:44:34;;;;;;;;;;;;;;;;;;2077997;28;7010;-66
2021/01/09 05:45:51;;;;;;;;;;;;;;;;;;2074708;28;7017;-66
2021/01/09 05:46:53;;;;;;;;;;;;;;;;;;2070863;28;7017;-64
2021/01/09 05:47:56;;;;;;;;;;;;;;;;;;2070713;28;7092;-63
2021/01/09 05:48:59;;;;;;;;;;;;;;;;;;2071655;28;7017;-64
2021/01/09 05:50:06;;;;;;;;;;;;;;;;;;2071760;28;7041;-63
2021/01/09 05:51:12;;;;;;;;;;;;;;;;;;2072038;28;7018;-63
2021/01/09 05:52:14;;;;;;;;;;;;;;;;;;2072112;28;7050;-63
2021/01/09 05:53:35;;;;;;;;;;;;;;;;;;2072151;28;7013;-62
2021/01/09 05:54:40;;;;;;;;;;;;;;;;;;2071447;28;7009;-66
2021/01/09 05:55:48;;;;;;;;;;;;;;;;;;2071141;28;7187;-65
2021/01/09 05:56:51;;;;;;;;;;;;;;;;;;2070198;28;7013;-65
2021/01/09 05:57:53;;;;;;;;;;;;;;;;;;2072141;28;7041;-66
2021/01/09 05:58:56;;;;;;;;;;;;;;;;;;2070677;28;7543;-65
2021/01/09 05:59:59;;;;;;;;;;;;;;;;;;2071634;28;7010;-65
2021/01/09 06:01:12;;;;;;;;;;;;;;;;;;2070350;28;7089;-64
2021/01/09 06:02:23;;;;;;;;;;;;;;;;;;2071617;28;7113;-66
2021/01/09 06:03:34;;;;;;;;;;;;;;;;;;2071954;28;7037;-63
2021/01/09 06:04:42;;;;;;;;;;;;;;;;;;2071155;28;7113;-64
2021/01/09 06:05:52;;;;;;;;;;;;;;;;;;2071968;28;7113;-64
2021/01/09 06:06:57;;;;;;;;;;;;;;;;;;2072289;28;7006;-65
2021/01/09 06:08:01;;;;;;;;;;;;;;;;;;2071948;28;7009;-65
2021/01/09 06:09:05;;;;;;;;;;;;;;;;;;2071724;28;7092;-64
2021/01/09 06:10:09;;;;;;;;;;;;;;;;;;2071910;28;7088;-65
2021/01/09 06:11:16;;;;;;;;;;;;;;;;;;2071018;28;7135;-64
2021/01/09 06:12:21;;;;;;;;;;;;;;;;;;2071471;28;7105;-66
2021/01/09 06:13:28;;;;;;;;;;;;;;;;;;2072065;28;7013;-66
2021/01/09 06:14:41;;;;;;;;;;;;;;;;;;2071778;28;7013;-65
2021/01/09 06:15:44;;;;;;;;;;;;;;;;;;2071278;28;7005;-66
2021/01/09 06:16:47;;;;;;;;;;;;;;;;;;2071615;28;7312;-64
2021/01/09 06:17:51;;;;;;;;;;;;;;;;;;2071584;28;7033;-64
2021/01/09 06:18:54;;;;;;;;;;;;;;;;;;2071530;28;7120;-66
2021/01/09 06:19:56;;;;;;;;;;;;;;;;;;2071545;28;8060;-65
2021/01/09 06:20:59;;;;;;;;;;;;;;;;;;2072201;28;7112;-64
2021/01/09 06:22:04;;;;;;;;;;;;;;;;;;2079636;28;7231;-64
2021/01/09 06:23:06;;;;;;;;;;;;;;;;;;2079669;28;7042;-63
2021/01/09 06:24:08;;;;;;;;;;;;;;;;;;2080387;28;7100;-65
2021/01/09 06:25:14;;;;;;;;;;;;;;;;;;2087032;28;7135;-65
2021/01/09 06:26:16;;;;;;;;;;;;;;;;;;2087063;28;7400;-64
2021/01/09 06:27:30;;;;;;;;;;;;;;;;;;2079085;28;7089;-67
2021/01/09 06:28:39;;;;;;;;;;;;;;;;;;2079668;28;8042;-67
2021/01/09 06:29:42;;;;;;;;;;;;;;;;;;2080606;28;7009;-66
2021/01/09 06:30:44;;;;;;;;;;;;;;;;;;2080335;28;7009;-65
2021/01/09 06:31:54;;;;;;;;;;;;;;;;;;2079870;28;7113;-68
2021/01/09 06:32:59;;;;;;;;;;;;;;;;;;2079961;28;7005;-65
2021/01/09 06:34:01;;;;;;;;;;;;;;;;;;2078958;28;7013;-65
2021/01/09 06:35:04;;;;;;;;;;;;;;;;;;2079625;28;8013;-66
2021/01/09 06:36:13;;;;;;;;;;;;;;;;;;2079443;28;7042;-64
2021/01/09 06:37:20;;;;;;;;;;;;;;;;;;2079792;28;8063;-63
2021/01/09 06:38:22;;;;;;;;;;;;;;;;;;2079471;28;8039;-65
2021/01/09 06:39:35;;;;;;;;;;;;;;;;;;2079317;28;8562;-63
2021/01/09 06:40:37;;;;;;;;;;;;;;;;;;2079712;28;8043;-63
2021/01/09 06:41:39;;;;;;;;;;;;;;;;;;2079135;28;7146;-66
2021/01/09 06:42:45;;;;;;;;;;;;;;;;;;2079424;28;7048;-64
2021/01/09 06:44:04;;;;;;;;;;;;;;;;;;2079698;28;7037;-64
2021/01/09 06:45:07;;;;;;;;;;;;;;;;;;2079869;28;7130;-67
2021/01/09 06:46:13;;;;;;;;;;;;;;;;;;2087104;28;7120;-64
2021/01/09 06:47:28;;;;;;;;;;;;;;;;;;2086876;28;8102;-64
2021/01/09 06:48:30;;;;;;;;;;;;;;;;;;2078932;28;7006;-68
2021/01/09 06:49:32;;;;;;;;;;;;;;;;;;2079278;28;7088;-66
2021/01/09 06:50:35;;;;;;;;;;;;;;;;;;2079616;28;7013;-65
2021/01/09 06:51:37;;;;;;;;;;;;;;;;;;2079127;28;8039;-65
2021/01/09 06:52:54;;;;;;;;;;;;;;;;;;2079476;28;8006;-67
2021/01/09 06:54:14;;;;;;;;;;;;;;;;;;2079263;28;7009;-64
2021/01/09 06:55:36;;;;;;;;;;;;;;;;;;2080058;28;7009;-62
2021/01/09 06:56:38;;;;;;;;;;;;;;;;;;2079219;28;7319;-65
2021/01/09 06:57:40;;;;;;;;;;;;;;;;;;2079635;28;7141;-63
2021/01/09 06:58:50;;;;;;;;;;;;;;;;;;2079705;28;7016;-65
2021/01/09 06:59:52;;;;;;;;;;;;;;;;;;2080428;28;7139;-62
2021/01/09 07:01:14;;;;;;;;;;;;;;;;;;2079437;28;7112;-64
2021/01/09 07:02:16;;;;;;;;;;;;;;;;;;2079347;28;8050;-66
2021/01/09 07:03:21;;;;;;;;;;;;;;;;;;2070716;28;7053;-62
2021/01/09 07:04:42;;;;;;;;;;;;;;;;;;2070652;28;7376;-64
2021/01/09 07:05:51;;;;;;;;;;;;;;;;;;2079480;28;7013;-66
2021/01/09 07:06:57;;;;;;;;;;;;;;;;;;2079568;28;7084;-67
2021/01/09 07:08:01;;;;;;;;;;;;;;;;;;2072577;28;7092;-62
2021/01/09 07:09:04;;;;;;;;;;;;;;;;;;2079288;28;7021;-64
2021/01/09 07:10:10;;;;;;;;;;;;;;;;;;2070723;28;7025;-65
2021/01/09 07:11:14;;;;;;;;;;;;;;;;;;2070611;28;7046;-65
2021/01/09 07:12:17;;;;;;;;;;;;;;;;;;2071403;28;7050;-64
2021/01/09 07:13:21;;;;;;;;;;;;;;;;;;2071679;28;7009;-66
2021/01/09 07:14:22;;;;;;;;;;;;;;;;;;2071801;28;8051;-66
2021/01/09 07:15:28;;;;;;;;;;;;;;;;;;2070999;28;7073;-68
2021/01/09 07:16:30;;;;;;;;;;;;;;;;;;2071575;28;7092;-65
2021/01/09 07:17:34;;;;;;;;;;;;;;;;;;2078554;28;7367;-61
2021/01/09 07:18:38;;;;;;;;;;;;;;;;;;2078588;28;7061;-67
2021/01/09 07:19:42;;;;;;;;;;;;;;;;;;2070532;28;7009;-66
2021/01/09 07:20:45;;;;;;;;;;;;;;;;;;2071348;28;7097;-65